Time;durP1;ratioP1;P1;durP2;ratioP2;P2;SDS_P1;SDS_P2;PMS_P1;PMS_P2;Temp;Humidity;BMP_temperature;BMP_pressure;BME280_temperature;BME280_humidity;BME280_pressure;Samples;Min_cycle;Max_cycle;Signal;HPM_P1;HPM_P2
2023/05/15 00:01:25;;;;;;;7.90;3.17;;;15.90;92.30;;;;;;4985105;28;20145;-59
2023/05/15 00:03:51;;;;;;;6.65;3.17;;;15.90;92.30;;;;;;4983455;28;20487;-60
2023/05/15 00:06:17;;;;;;;9.85;3.55;;;15.90;92.30;;;;;;4985414;28;20038;-59
2023/05/15 00:08:43;;;;;;;4.05;2.72;;;15.90;92.30;;;;;;4983934;28;20031;-60
2023/05/15 00:11:09;;;;;;;6.15;3.35;;;15.80;92.30;;;;;;4983274;28;20097;-59
2023/05/15 00:13:37;;;;;;;8.45;3.35;;;15.80;92.30;;;;;;4987632;28;20354;-59
2023/05/15 00:16:04;;;;;;;8.02;3.08;;;15.80;92.30;;;;;;4987236;28;20031;-59
2023/05/15 00:18:30;;;;;;;7.13;3.25;;;15.80;92.30;;;;;;4985705;28;20041;-60
2023/05/15 00:20:56;;;;;;;5.43;2.83;;;15.80;92.30;;;;;;4983909;28;20031;-60
2023/05/15 00:23:21;;;;;;;7.43;2.92;;;15.80;92.30;;;;;;4986267;28;20062;-60
2023/05/15 00:25:47;;;;;;;7.22;2.80;;;15.80;92.30;;;;;;4984139;28;20031;-60
2023/05/15 00:28:12;;;;;;;8.55;3.42;;;15.80;92.40;;;;;;4983474;28;20027;-60
2023/05/15 00:30:38;;;;;;;5.25;2.72;;;15.80;92.40;;;;;;4983416;28;20038;-60
2023/05/15 00:33:03;;;;;;;6.20;2.50;;;15.80;92.40;;;;;;4987604;28;20027;-60
2023/05/15 00:35:29;;;;;;;7.53;3.03;;;15.80;92.40;;;;;;4987646;28;20047;-60
2023/05/15 00:37:55;;;;;;;5.43;2.58;;;15.80;92.40;;;;;;4971496;28;20062;-60
2023/05/15 00:40:21;;;;;;;4.45;2.67;;;15.80;92.40;;;;;;4988687;28;20045;-60
2023/05/15 00:42:47;;;;;;;4.93;2.70;;;15.70;92.40;;;;;;4987051;28;20518;-60
2023/05/15 00:45:12;;;;;;;8.20;2.70;;;15.70;92.40;;;;;;4987171;28;20034;-60
2023/05/15 00:47:39;;;;;;;4.07;2.40;;;15.70;92.70;;;;;;4986351;28;20027;-60
2023/05/15 00:50:05;;;;;;;6.20;2.70;;;15.70;92.40;;;;;;4987408;28;20488;-60
2023/05/15 00:52:31;;;;;;;5.43;2.40;;;15.70;92.40;;;;;;4987733;28;20122;-60
2023/05/15 00:54:56;;;;;;;5.63;2.38;;;15.70;92.70;;;;;;4986134;28;20053;-60
2023/05/15 00:57:22;;;;;;;4.85;2.00;;;15.70;92.50;;;;;;4988931;28;20079;-60
2023/05/15 00:59:48;;;;;;;3.25;2.15;;;15.70;92.50;;;;;;4987210;28;20041;-60
2023/05/15 01:02:14;;;;;;;4.30;2.20;;;15.70;92.60;;;;;;4986956;28;20042;-60
2023/05/15 01:04:40;;;;;;;4.03;2.22;;;15.70;92.50;;;;;;4985453;28;20027;-60
2023/05/15 01:07:05;;;;;;;6.85;2.70;;;15.60;92.50;;;;;;4988692;28;20035;-60
2023/05/15 01:09:31;;;;;;;3.03;1.90;;;15.60;92.50;;;;;;4985023;28;20022;-60
2023/05/15 01:11:56;;;;;;;4.68;2.30;;;15.60;92.60;;;;;;4986667;28;20081;-60
2023/05/15 01:14:22;;;;;;;4.22;2.28;;;15.60;92.60;;;;;;4985813;28;20497;-60
2023/05/15 01:16:48;;;;;;;3.72;2.20;;;15.60;92.60;;;;;;4986613;28;20042;-60
2023/05/15 01:19:13;;;;;;;3.20;2.15;;;15.60;92.60;;;;;;4988393;28;20039;-60
2023/05/15 01:22:10;;;;;;;5.05;2.10;;;15.60;92.50;;;;;;4986906;28;20039;-59
2023/05/15 01:24:58;;;;;;;8.57;2.00;;;15.70;92.60;;;;;;4988399;28;20049;-60
2023/05/15 01:27:53;;;;;;;6.43;2.30;;;15.60;92.60;;;;;;4988346;28;20034;-60
2023/05/15 01:30:28;;;;;;;3.83;2.00;;;15.60;92.50;;;;;;4987218;28;20519;-60
2023/05/15 01:32:56;;;;;;;3.73;2.00;;;15.60;92.50;;;;;;4986915;28;20074;-60
2023/05/15 01:35:39;;;;;;;4.85;2.03;;;15.60;92.50;;;;;;4988306;28;20030;-60
2023/05/15 01:38:26;;;;;;;5.72;2.20;;;15.60;92.50;;;;;;4986895;28;20050;-60
2023/05/15 01:41:15;;;;;;;3.55;1.95;;;15.60;92.50;;;;;;4988114;28;20019;-60
2023/05/15 01:43:43;;;;;;;4.53;2.10;;;15.60;92.60;;;;;;4986696;28;20042;-60
2023/05/15 01:46:08;;;;;;;2.55;2.10;;;15.60;92.60;;;;;;4986648;28;20042;-60
2023/05/15 01:48:35;;;;;;;4.15;2.30;;;15.60;92.60;;;;;;4985895;28;20070;-60
2023/05/15 01:51:02;;;;;;;4.43;2.85;;;15.60;92.60;;;;;;4985502;28;20030;-60
2023/05/15 01:53:30;;;;;;;5.03;2.53;;;15.50;92.60;;;;;;4985692;28;20033;-60
2023/05/15 01:55:55;;;;;;;5.13;3.53;;;15.50;92.60;;;;;;4985956;28;20033;-60
2023/05/15 01:58:21;;;;;;;4.50;3.75;;;15.50;92.60;;;;;;4985754;28;20046;-59
2023/05/15 02:00:47;;;;;;;6.75;3.53;;;15.50;92.60;;;;;;4985342;28;20030;-60
2023/05/15 02:03:12;;;;;;;6.22;3.83;;;15.50;92.60;;;;;;4985786;28;20035;-60
2023/05/15 02:05:38;;;;;;;5.20;3.63;;;15.50;92.70;;;;;;4985253;28;20459;-60
2023/05/15 02:08:04;;;;;;;5.20;3.50;;;15.50;92.70;;;;;;4970011;28;20030;-60
2023/05/15 02:10:30;;;;;;;6.50;3.40;;;15.50;92.60;;;;;;4985778;28;20087;-60
2023/05/15 02:12:56;;;;;;;3.33;2.90;;;15.50;92.60;;;;;;4986062;28;20043;-60
2023/05/15 02:15:22;;;;;;;5.13;3.40;;;15.60;92.60;;;;;;4986963;28;20062;-60
2023/05/15 02:17:47;;;;;;;4.68;3.15;;;15.50;92.60;;;;;;4985522;28;20470;-60
2023/05/15 02:20:14;;;;;;;5.22;3.42;;;15.50;92.90;;;;;;4984735;28;20047;-60
2023/05/15 02:22:40;;;;;;;4.50;3.03;;;15.50;92.70;;;;;;4987575;28;20057;-60
2023/05/15 02:25:06;;;;;;;7.10;3.10;;;15.50;92.70;;;;;;4968730;28;20027;-60
2023/05/15 02:27:47;;;;;;;6.00;3.30;;;15.50;92.70;;;;;;4985514;28;20077;-60
2023/05/15 02:30:24;;;;;;;6.00;4.40;;;15.50;92.70;;;;;;4985209;28;20031;-60
2023/05/15 02:33:02;;;;;;;5.78;4.38;;;15.50;92.70;;;;;;4986168;28;20027;-60
2023/05/15 02:35:45;;;;;;;5.18;4.65;;;15.50;92.70;;;;;;4986177;28;20030;-59
2023/05/15 02:38:14;;;;;;;7.10;4.47;;;15.50;92.70;;;;;;4985079;28;20035;-60
2023/05/15 02:40:40;;;;;;;5.43;4.60;;;15.50;92.80;;;;;;4984911;28;20031;-60
2023/05/15 02:43:06;;;;;;;5.82;4.18;;;15.50;92.80;;;;;;4984657;28;20406;-60
2023/05/15 02:45:32;;;;;;;5.85;3.95;;;15.50;92.90;;;;;;4984024;28;20046;-60
2023/05/15 02:47:57;;;;;;;6.90;4.00;;;15.50;93.00;;;;;;5000566;28;20035;-60
2023/05/15 02:50:23;;;;;;;7.65;4.38;;;15.50;93.00;;;;;;4983884;28;20038;-60
2023/05/15 02:52:48;;;;;;;5.90;4.07;;;15.50;93.10;;;;;;4984043;28;20038;-60
2023/05/15 02:55:14;;;;;;;5.85;3.95;;;15.50;93.10;;;;;;4984039;28;20102;-60
2023/05/15 02:57:40;;;;;;;5.35;4.25;;;15.50;93.10;;;;;;4984646;28;20098;-60
2023/05/15 03:00:10;;;;;;;6.03;5.18;;;15.40;93.10;;;;;;4983729;28;20079;-60
2023/05/15 03:02:36;;;;;;;5.80;4.03;;;15.40;93.20;;;;;;4984750;28;20027;-60
2023/05/15 03:05:02;;;;;;;8.00;4.70;;;15.40;93.20;;;;;;4985653;28;20035;-60
2023/05/15 03:07:27;;;;;;;7.10;4.80;;;15.40;93.20;;;;;;4984898;28;20480;-60
2023/05/15 03:09:53;;;;;;;6.28;4.93;;;15.40;93.20;;;;;;4983604;28;20039;-60
2023/05/15 03:12:19;;;;;;;5.72;4.75;;;15.40;93.30;;;;;;4985731;28;20035;-61
2023/05/15 03:14:44;;;;;;;6.70;4.63;;;15.40;93.30;;;;;;4984561;28;20031;-60
2023/05/15 03:17:10;;;;;;;6.75;4.50;;;15.40;93.30;;;;;;4985556;28;20043;-60
2023/05/15 03:19:36;;;;;;;4.63;4.22;;;15.40;93.60;;;;;;4984019;28;20045;-60
2023/05/15 03:22:02;;;;;;;5.72;4.45;;;15.40;93.30;;;;;;4985674;28;20043;-60
2023/05/15 03:24:27;;;;;;;5.95;4.32;;;15.40;93.30;;;;;;4984157;28;20035;-60
2023/05/15 03:26:53;;;;;;;7.80;5.13;;;15.40;93.30;;;;;;4987053;28;20039;-60
2023/05/15 03:29:18;;;;;;;8.57;5.40;;;15.40;93.30;;;;;;4985402;28;20050;-60
2023/05/15 03:31:44;;;;;;;6.65;5.80;;;15.40;93.30;;;;;;4984206;28;20098;-60
2023/05/15 03:34:10;;;;;;;7.75;5.65;;;15.30;93.30;;;;;;4984476;28;20035;-60
2023/05/15 03:36:36;;;;;;;5.78;5.13;;;15.40;93.30;;;;;;4981508;28;20030;-60
2023/05/15 03:39:01;;;;;;;8.40;5.45;;;15.30;93.30;;;;;;5000103;28;20557;-60
2023/05/15 03:41:27;;;;;;;7.97;6.45;;;15.30;93.60;;;;;;4984025;28;20030;-60
2023/05/15 03:43:52;;;;;;;7.20;5.53;;;15.30;93.30;;;;;;4984324;28;20058;-60
2023/05/15 03:46:19;;;;;;;6.80;5.63;;;15.30;93.30;;;;;;4984633;28;20026;-59
2023/05/15 03:48:45;;;;;;;7.28;5.43;;;15.30;93.40;;;;;;4983582;28;20023;-60
2023/05/15 03:51:10;;;;;;;8.13;5.22;;;15.30;93.40;;;;;;4983207;28;20077;-60
2023/05/15 03:53:36;;;;;;;6.90;5.50;;;15.30;93.40;;;;;;4984280;28;20047;-60
2023/05/15 03:56:02;;;;;;;5.90;5.10;;;15.30;93.40;;;;;;4967293;28;20027;-60
2023/05/15 03:58:30;;;;;;;7.43;4.88;;;15.30;93.50;;;;;;4983092;28;20019;-60
2023/05/15 04:00:56;;;;;;;5.95;4.97;;;15.30;93.50;;;;;;4964943;28;20027;-60
2023/05/15 04:03:22;;;;;;;9.30;4.80;;;15.30;93.50;;;;;;5008462;28;20050;-60
2023/05/15 04:05:48;;;;;;;5.95;5.03;;;15.30;93.40;;;;;;4983762;28;20035;-60
2023/05/15 04:08:14;;;;;;;8.18;4.68;;;15.20;93.40;;;;;;5019372;28;20026;-60
2023/05/15 04:10:40;;;;;;;7.47;4.88;;;15.30;93.40;;;;;;4987662;28;20041;-60
2023/05/15 04:13:06;;;;;;;5.88;5.00;;;15.20;93.40;;;;;;4987163;28;20046;-60
2023/05/15 04:15:32;;;;;;;7.88;4.80;;;15.20;93.40;;;;;;4987108;28;20053;-60
2023/05/15 04:17:57;;;;;;;6.07;4.35;;;15.20;93.40;;;;;;4988700;28;20050;-60
2023/05/15 04:20:23;;;;;;;4.95;4.15;;;15.30;93.50;;;;;;4987095;28;20129;-60
2023/05/15 04:22:49;;;;;;;6.25;3.83;;;15.20;93.50;;;;;;4987034;28;20046;-60
2023/05/15 04:25:15;;;;;;;5.45;4.40;;;15.20;93.50;;;;;;4980503;28;20031;-60
2023/05/15 04:27:41;;;;;;;4.65;4.00;;;15.20;93.50;;;;;;4987543;28;20031;-60
2023/05/15 04:30:07;;;;;;;6.72;4.13;;;15.20;93.40;;;;;;5002699;28;20027;-60
2023/05/15 04:32:33;;;;;;;6.45;4.68;;;15.20;93.40;;;;;;4987041;28;20031;-60
2023/05/15 04:35:00;;;;;;;4.75;3.97;;;15.20;93.40;;;;;;4988586;28;20096;-60
2023/05/15 04:37:26;;;;;;;4.88;4.13;;;15.20;93.30;;;;;;4988977;28;20105;-60
2023/05/15 04:39:51;;;;;;;4.20;3.80;;;15.10;93.30;;;;;;4988395;28;20031;-60
2023/05/15 04:42:17;;;;;;;5.95;3.85;;;15.20;93.30;;;;;;4987583;28;20039;-60
2023/05/15 04:44:43;;;;;;;4.70;3.80;;;15.20;93.40;;;;;;4987779;28;20035;-60
2023/05/15 04:47:10;;;;;;;4.80;3.80;;;15.10;93.30;;;;;;4971369;28;20031;-60
2023/05/15 04:49:36;;;;;;;3.85;3.17;;;15.20;93.30;;;;;;4987071;28;20023;-60
2023/05/15 04:52:03;;;;;;;7.53;3.78;;;15.10;93.40;;;;;;5002541;28;20045;-60
2023/05/15 04:54:28;;;;;;;5.30;3.78;;;15.10;93.40;;;;;;4986427;28;20098;-60
2023/05/15 04:56:54;;;;;;;5.63;3.70;;;15.10;93.30;;;;;;4986058;28;20035;-60
2023/05/15 04:59:20;;;;;;;5.18;3.60;;;15.10;93.30;;;;;;4987900;28;20034;-59
2023/05/15 05:01:47;;;;;;;6.82;3.83;;;15.10;93.30;;;;;;4986411;28;20039;-60
2023/05/15 05:04:13;;;;;;;7.03;3.72;;;15.10;93.40;;;;;;4985423;28;20031;-59
2023/05/15 05:06:39;;;;;;;15.13;4.88;;;15.10;93.30;;;;;;4987975;28;20045;-60
2023/05/15 05:09:04;;;;;;;28.23;5.35;;;15.10;93.40;;;;;;4987646;28;20035;-60
2023/05/15 05:11:30;;;;;;;34.72;4.95;;;15.10;93.40;;;;;;4986365;28;20031;-60
2023/05/15 05:13:56;;;;;;;29.30;5.20;;;15.10;93.40;;;;;;4986850;28;20100;-60
2023/05/15 05:16:21;;;;;;;31.95;4.90;;;15.10;93.40;;;;;;4987524;28;20042;-59
2023/05/15 05:18:47;;;;;;;19.48;4.72;;;15.10;93.40;;;;;;4985245;28;20401;-60
2023/05/15 05:21:13;;;;;;;17.73;4.63;;;15.10;93.40;;;;;;4986120;28;20029;-60
2023/05/15 05:23:38;;;;;;;24.75;4.63;;;15.10;93.40;;;;;;4987524;28;20046;-60
2023/05/15 05:26:04;;;;;;;26.70;4.68;;;15.10;93.40;;;;;;4987067;28;20031;-60
2023/05/15 05:28:30;;;;;;;23.17;4.80;;;15.10;93.40;;;;;;4987399;28;20102;-59
2023/05/15 05:30:58;;;;;;;21.30;5.18;;;15.10;93.40;;;;;;5017919;28;20035;-60
2023/05/15 05:33:24;;;;;;;19.35;3.95;;;15.10;93.40;;;;;;4986901;28;20118;-60
2023/05/15 05:35:50;;;;;;;15.75;4.70;;;15.10;93.30;;;;;;4986071;28;20371;-60
2023/05/15 05:38:16;;;;;;;20.33;4.25;;;15.10;93.40;;;;;;4986898;28;20066;-59
2023/05/15 05:40:42;;;;;;;15.15;4.28;;;15.10;93.40;;;;;;4966817;28;20027;-60
2023/05/15 05:43:09;;;;;;;14.90;4.35;;;15.10;93.40;;;;;;4969094;28;20099;-60
2023/05/15 05:45:35;;;;;;;13.73;3.63;;;15.10;93.50;;;;;;4986100;28;20061;-60
2023/05/15 05:48:00;;;;;;;19.30;4.50;;;15.10;93.50;;;;;;4986491;28;20031;-60
2023/05/15 05:50:27;;;;;;;25.60;4.43;;;15.10;93.50;;;;;;4985176;28;20027;-60
2023/05/15 05:52:52;;;;;;;13.80;4.25;;;15.10;93.40;;;;;;4986926;28;20035;-60
2023/05/15 05:55:18;;;;;;;14.63;4.07;;;15.10;93.40;;;;;;4985344;28;20146;-60
2023/05/15 05:57:44;;;;;;;31.40;5.60;;;15.10;93.40;;;;;;4987155;28;20095;-60
2023/05/15 06:00:10;;;;;;;29.77;4.80;;;15.10;93.40;;;;;;4986522;28;20069;-60
2023/05/15 06:02:36;;;;;;;25.95;4.38;;;15.10;93.50;;;;;;4987014;28;20031;-60
2023/05/15 06:05:02;;;;;;;26.92;4.78;;;15.00;93.40;;;;;;4984724;28;20046;-60
2023/05/15 06:07:28;;;;;;;22.33;4.55;;;15.10;93.50;;;;;;4987280;28;20494;-60
2023/05/15 06:09:53;;;;;;;27.95;5.45;;;15.10;93.50;;;;;;4985501;28;20023;-60
2023/05/15 06:12:19;;;;;;;38.65;5.35;;;15.10;93.50;;;;;;4985780;28;20453;-60
2023/05/15 06:14:50;;;;;;;28.33;4.88;;;15.10;93.50;;;;;;4985253;28;20094;-60
2023/05/15 06:17:16;;;;;;;28.48;4.97;;;15.10;93.60;;;;;;4985149;28;20039;-60
2023/05/15 06:19:42;;;;;;;33.22;6.45;;;15.10;93.60;;;;;;4984557;28;20034;-60
2023/05/15 06:22:08;;;;;;;36.08;5.32;;;15.10;93.60;;;;;;5000993;28;20085;-59
2023/05/15 06:24:34;;;;;;;42.42;5.93;;;15.10;93.60;;;;;;4986238;28;20039;-60
2023/05/15 06:27:00;;;;;;;36.60;5.97;;;15.10;93.60;;;;;;4984754;28;20031;-60
2023/05/15 06:29:26;;;;;;;33.85;6.25;;;15.10;93.70;;;;;;4986062;28;20109;-60
2023/05/15 06:31:52;;;;;;;41.80;6.03;;;15.10;93.80;;;;;;4984661;28;20030;-60
2023/05/15 06:34:17;;;;;;;41.72;6.45;;;15.10;93.80;;;;;;4984705;28;20035;-60
2023/05/15 06:36:44;;;;;;;38.88;6.68;;;15.10;93.80;;;;;;4984826;28;20054;-60
2023/05/15 06:39:10;;;;;;;45.75;6.40;;;15.10;93.80;;;;;;5016738;28;20030;-60
2023/05/15 06:41:37;;;;;;;47.55;6.88;;;15.10;93.80;;;;;;4984500;28;20033;-60
2023/05/15 06:44:03;;;;;;;49.08;7.90;;;15.10;93.90;;;;;;4969178;28;20042;-60
2023/05/15 06:46:29;;;;;;;44.25;7.53;;;15.10;94.10;;;;;;4967341;29;20035;-60
2023/05/15 06:48:54;;;;;;;24.70;5.97;;;15.10;93.80;;;;;;4967452;28;20105;-60
2023/05/15 06:51:20;;;;;;;29.15;5.25;;;15.10;93.80;;;;;;4982624;28;20026;-59
2023/05/15 06:53:45;;;;;;;28.38;4.97;;;15.10;93.80;;;;;;4984466;28;20029;-60
2023/05/15 06:56:11;;;;;;;27.05;4.55;;;15.10;93.80;;;;;;4996547;28;20113;-60
2023/05/15 06:58:37;;;;;;;26.35;5.13;;;15.10;93.90;;;;;;4986243;28;20054;-60
2023/05/15 07:01:08;;;;;;;20.42;4.47;;;15.10;93.90;;;;;;4986594;28;20031;-60
2023/05/15 07:03:34;;;;;;;30.95;5.40;;;15.10;93.90;;;;;;4966853;29;20091;-60
2023/05/15 07:06:00;;;;;;;53.10;6.28;;;15.10;93.90;;;;;;4982447;28;20088;-60
2023/05/15 07:08:25;;;;;;;35.20;5.75;;;15.10;93.90;;;;;;4992394;28;20054;-60
2023/05/15 07:10:51;;;;;;;35.42;6.13;;;15.20;93.90;;;;;;4985321;28;20050;-60
2023/05/15 07:13:18;;;;;;;34.45;5.22;;;15.20;93.80;;;;;;4984022;28;20042;-60
2023/05/15 07:15:46;;;;;;;24.67;4.72;;;15.20;93.70;;;;;;4989616;28;20034;-60
2023/05/15 07:18:12;;;;;;;32.20;5.55;;;15.30;93.70;;;;;;4985972;28;20038;-60
2023/05/15 07:20:38;;;;;;;21.08;4.70;;;15.30;93.60;;;;;;4967004;28;20047;-60
2023/05/15 07:23:04;;;;;;;25.55;4.90;;;15.30;93.50;;;;;;4965493;28;20039;-60
2023/05/15 07:25:30;;;;;;;24.77;4.85;;;15.40;93.60;;;;;;4978834;28;20030;-60
2023/05/15 07:27:59;;;;;;;19.70;4.40;;;15.40;93.50;;;;;;4985995;28;20049;-60
2023/05/15 07:30:25;;;;;;;20.88;5.13;;;15.40;93.50;;;;;;4985219;28;20022;-61
2023/05/15 07:32:50;;;;;;;24.60;4.70;;;15.40;93.50;;;;;;4986573;28;20045;-60
2023/05/15 07:35:18;;;;;;;22.63;4.80;;;15.40;93.50;;;;;;4989986;28;20106;-60
2023/05/15 07:37:45;;;;;;;29.33;4.88;;;15.50;93.50;;;;;;4997236;28;20054;-60
2023/05/15 07:40:12;;;;;;;23.13;4.57;;;15.50;93.50;;;;;;4984567;28;20046;-60
2023/05/15 07:42:38;;;;;;;28.30;4.60;;;15.40;93.60;;;;;;4986002;28;20139;-60
2023/05/15 07:45:08;;;;;;;23.17;4.85;;;15.40;93.70;;;;;;4983337;28;20022;-60
2023/05/15 07:47:35;;;;;;;20.10;4.13;;;15.50;93.70;;;;;;4985916;28;20050;-60
2023/05/15 07:50:01;;;;;;;20.38;3.72;;;15.50;93.70;;;;;;4985451;28;20031;-60
2023/05/15 07:52:27;;;;;;;19.63;4.82;;;15.50;93.70;;;;;;4995671;28;20062;-60
2023/05/15 07:54:52;;;;;;;33.50;4.45;;;15.50;93.70;;;;;;4983774;28;20027;-60
2023/05/15 07:57:18;;;;;;;23.98;4.07;;;15.50;93.70;;;;;;4985544;28;20054;-60
2023/05/15 07:59:45;;;;;;;26.55;4.75;;;15.40;93.80;;;;;;4967340;28;20491;-60
2023/05/15 08:02:10;;;;;;;42.83;5.60;;;15.50;93.80;;;;;;4981338;28;20042;-61
2023/05/15 08:04:36;;;;;;;39.88;6.15;;;15.40;94.00;;;;;;4981345;28;20134;-60
2023/05/15 08:07:02;;;;;;;28.85;5.38;;;15.50;94.10;;;;;;4983456;28;20046;-60
2023/05/15 08:09:28;;;;;;;39.35;5.43;;;15.50;94.10;;;;;;4979656;28;20116;-60
2023/05/15 08:12:16;;;;;;;30.38;4.90;;;15.50;94.10;;;;;;4974270;28;20067;-60
2023/05/15 08:14:42;;;;;;;48.88;6.97;;;15.50;94.40;;;;;;4975797;28;20150;-60
2023/05/15 08:17:09;;;;;;;80.75;8.75;;;15.50;94.10;;;;;;4980542;28;20037;-60
2023/05/15 08:19:36;;;;;;;65.03;8.52;;;15.60;94.20;;;;;;4980262;28;20122;-60
2023/05/15 08:22:01;;;;;;;75.13;8.75;;;15.50;94.60;;;;;;4980791;28;20042;-60
2023/05/15 08:24:27;;;;;;;64.57;7.65;;;15.60;94.40;;;;;;4981110;28;20031;-60
2023/05/15 08:26:52;;;;;;;51.45;6.40;;;15.50;94.20;;;;;;4978218;28;20027;-60
2023/05/15 08:29:20;;;;;;;54.08;8.05;;;15.60;94.10;;;;;;4977534;28;20079;-60
2023/05/15 08:31:46;;;;;;;50.00;7.47;;;15.60;94.20;;;;;;4976029;28;20046;-61
2023/05/15 08:34:12;;;;;;;40.58;6.72;;;15.60;94.20;;;;;;4977488;28;20030;-60
2023/05/15 08:36:39;;;;;;;39.10;5.63;;;15.60;94.20;;;;;;4981531;28;20061;-60
2023/05/15 08:39:06;;;;;;;36.50;5.45;;;15.70;94.20;;;;;;4974455;28;20110;-60
2023/05/15 08:41:32;;;;;;;29.42;5.00;;;15.60;94.10;;;;;;4978507;28;20031;-60
2023/05/15 08:43:58;;;;;;;44.22;6.90;;;15.60;94.20;;;;;;4963842;28;20527;-60
2023/05/15 08:46:24;;;;;;;26.63;5.25;;;15.70;94.30;;;;;;4977435;28;20035;-60
2023/05/15 08:48:51;;;;;;;21.55;5.80;;;15.70;94.30;;;;;;4974803;28;20046;-60
2023/05/15 08:51:17;;;;;;;25.88;5.30;;;15.70;94.30;;;;;;4982731;28;20041;-58
2023/05/15 08:53:44;;;;;;;32.92;6.05;;;15.70;94.30;;;;;;4984693;28;20423;-61
2023/05/15 08:56:11;;;;;;;32.08;6.53;;;15.70;94.40;;;;;;4984323;28;20399;-60
2023/05/15 08:58:36;;;;;;;42.67;6.50;;;15.80;94.50;;;;;;4986353;28;20046;-60
2023/05/15 09:01:02;;;;;;;36.45;6.55;;;15.80;94.50;;;;;;4970137;28;20109;-60
2023/05/15 09:03:28;;;;;;;34.15;6.03;;;15.80;94.60;;;;;;4983069;28;20351;-61
2023/05/15 09:05:53;;;;;;;47.63;5.82;;;15.80;94.60;;;;;;4983878;28;20195;-61
2023/05/15 09:08:20;;;;;;;31.27;5.78;;;15.90;94.50;;;;;;4989381;28;20026;-61
2023/05/15 09:10:46;;;;;;;44.80;6.07;;;15.90;94.60;;;;;;4982067;28;20126;-61
2023/05/15 09:13:11;;;;;;;37.45;5.68;;;15.90;94.70;;;;;;4983413;28;20534;-61
2023/05/15 09:15:37;;;;;;;38.80;6.95;;;15.90;94.70;;;;;;4981228;28;20065;-60
2023/05/15 09:18:02;;;;;;;42.55;6.32;;;16.00;94.60;;;;;;4967723;28;20027;-60
2023/05/15 09:20:31;;;;;;;43.25;6.60;;;16.00;94.70;;;;;;4982730;28;20030;-61
2023/05/15 09:22:59;;;;;;;55.53;8.70;;;16.10;94.80;;;;;;4977998;28;20058;-60
2023/05/15 09:25:41;;;;;;;49.10;6.43;;;16.10;94.80;;;;;;4982629;28;20058;-60
2023/05/15 09:28:08;;;;;;;34.20;6.40;;;16.20;94.90;;;;;;4970586;28;20034;-61
2023/05/15 09:30:37;;;;;;;40.60;7.22;;;16.20;94.70;;;;;;4980282;28;20050;-59
2023/05/15 09:33:03;;;;;;;45.05;7.03;;;16.20;94.90;;;;;;4965981;28;20034;-60
2023/05/15 09:35:36;;;;;;;68.38;9.15;;;16.20;95.00;;;;;;4976761;28;20042;-61
2023/05/15 09:38:06;;;;;;;47.75;7.32;;;16.20;95.10;;;;;;4957993;28;20046;-60
2023/05/15 09:40:32;;;;;;;41.47;7.40;;;16.20;95.10;;;;;;4981558;28;20063;-60
2023/05/15 09:42:58;;;;;;;48.22;8.20;;;16.30;95.00;;;;;;4982904;28;20100;-61
2023/05/15 09:45:28;;;;;;;53.97;7.53;;;16.30;95.00;;;;;;4975662;28;20050;-60
2023/05/15 09:47:56;;;;;;;48.95;7.35;;;16.30;95.00;;;;;;4991095;28;20038;-60
2023/05/15 09:50:22;;;;;;;71.75;10.13;;;16.30;94.90;;;;;;4975235;28;20019;-60
2023/05/15 09:52:49;;;;;;;75.75;9.95;;;16.30;95.00;;;;;;4981867;28;20018;-60
2023/05/15 09:55:16;;;;;;;88.43;10.77;;;16.30;95.10;;;;;;4975285;28;20027;-60
2023/05/15 09:57:42;;;;;;;68.47;9.73;;;16.40;95.10;;;;;;4979846;28;20042;-60
2023/05/15 10:00:10;;;;;;;58.97;8.65;;;16.40;95.20;;;;;;4978514;28;20544;-60
2023/05/15 10:02:38;;;;;;;52.83;9.13;;;16.40;95.00;;;;;;4979963;28;20027;-60
2023/05/15 10:05:03;;;;;;;72.30;9.98;;;16.40;94.90;;;;;;4973945;28;20150;-60
2023/05/15 10:07:33;;;;;;;71.95;9.50;;;16.40;95.00;;;;;;4975027;28;20036;-60
2023/05/15 10:10:01;;;;;;;78.28;10.70;;;16.40;95.10;;;;;;4975050;28;20039;-60
2023/05/15 10:12:27;;;;;;;87.28;13.10;;;16.40;95.00;;;;;;4989722;28;20030;-59
2023/05/15 10:14:54;;;;;;;138.48;16.75;;;16.40;94.90;;;;;;4976801;28;20042;-60
2023/05/15 10:17:20;;;;;;;82.07;11.57;;;16.40;95.10;;;;;;4956742;28;20043;-60
2023/05/15 10:19:47;;;;;;;91.05;11.77;;;16.50;95.00;;;;;;4977181;28;20306;-60
2023/05/15 10:22:13;;;;;;;68.70;12.05;;;16.50;95.20;;;;;;4981684;28;20141;-61
2023/05/15 10:24:38;;;;;;;100.45;10.73;;;16.50;95.30;;;;;;4963595;28;20130;-60
2023/05/15 10:27:04;;;;;;;78.63;9.93;;;16.50;95.50;;;;;;4980596;28;20218;-60
2023/05/15 10:29:30;;;;;;;96.60;11.32;;;16.50;95.70;;;;;;4980288;28;20114;-60
2023/05/15 10:31:55;;;;;;;105.97;12.18;;;16.50;95.60;;;;;;4980497;28;20455;-60
2023/05/15 10:34:21;;;;;;;85.90;11.07;;;16.60;95.60;;;;;;4987020;28;20038;-60
2023/05/15 10:36:46;;;;;;;83.63;9.73;;;16.60;95.50;;;;;;4994233;28;20353;-60
2023/05/15 10:39:12;;;;;;;96.32;12.27;;;16.60;95.40;;;;;;4980523;28;20097;-60
2023/05/15 10:41:38;;;;;;;86.57;10.90;;;16.70;95.30;;;;;;4984080;28;20034;-60
2023/05/15 10:44:03;;;;;;;76.97;10.82;;;16.70;95.30;;;;;;4980413;28;20039;-60
2023/05/15 10:46:30;;;;;;;71.35;10.55;;;16.80;95.20;;;;;;4979488;28;20089;-60
2023/05/15 10:48:56;;;;;;;74.35;10.18;;;16.70;95.10;;;;;;5013012;28;20031;-60
2023/05/15 10:51:29;;;;;;;149.45;16.25;;;16.80;95.00;;;;;;4974269;28;20066;-60
2023/05/15 10:53:55;;;;;;;95.40;12.85;;;16.80;95.00;;;;;;4992994;28;20038;-60
2023/05/15 10:56:24;;;;;;;94.35;12.10;;;16.90;94.90;;;;;;4984553;28;20031;-59
2023/05/15 10:58:50;;;;;;;107.63;12.57;;;16.90;94.90;;;;;;4991024;28;20031;-60
2023/05/15 11:01:30;;;;;;;104.80;14.32;;;16.90;94.80;;;;;;4980287;28;20023;-60
2023/05/15 11:04:10;;;;;;;108.13;11.80;;;16.90;94.80;;;;;;4984428;28;20129;-60
2023/05/15 11:06:36;;;;;;;94.65;11.48;;;17.00;94.70;;;;;;4961164;28;20026;-60
2023/05/15 11:09:23;;;;;;;71.60;10.60;;;17.00;94.40;;;;;;4983251;28;20034;-60
2023/05/15 11:11:55;;;;;;;64.47;10.10;;;17.00;94.40;;;;;;4983392;28;20091;-60
2023/05/15 11:14:24;;;;;;;58.50;10.00;;;16.90;94.40;;;;;;4981823;28;20101;-61
2023/05/15 11:16:53;;;;;;;74.90;10.55;;;17.00;94.50;;;;;;4982234;28;20098;-60
2023/05/15 11:19:28;;;;;;;74.80;11.00;;;17.00;94.50;;;;;;4981923;28;20113;-61
2023/05/15 11:22:14;;;;;;;62.93;10.60;;;17.00;94.50;;;;;;4977471;28;20034;-61
2023/05/15 11:25:05;;;;;;;67.40;10.23;;;17.00;94.60;;;;;;4984243;28;20483;-61
2023/05/15 11:27:31;;;;;;;49.10;8.18;;;17.00;94.50;;;;;;4980953;28;20031;-60
2023/05/15 11:30:07;;;;;;;52.78;8.82;;;17.00;94.70;;;;;;4981678;28;20035;-60
2023/05/15 11:32:38;;;;;;;;;;;17.00;94.70;;;;;;4987871;28;20019;-61
2023/05/15 11:35:07;;;;;;;57.55;9.10;;;17.00;94.80;;;;;;4976101;28;19914;-60
2023/05/15 11:37:35;;;;;;;61.60;8.98;;;17.00;94.70;;;;;;4982313;28;20070;-60
2023/05/15 11:40:01;;;;;;;59.28;7.95;;;17.10;94.90;;;;;;4977703;28;20043;-61
2023/05/15 11:42:26;;;;;;;66.55;9.68;;;17.10;95.10;;;;;;4982895;28;20125;-60
2023/05/15 11:44:52;;;;;;;54.10;8.18;;;17.20;95.30;;;;;;4984517;28;20031;-60
2023/05/15 11:47:17;;;;;;;59.65;7.03;;;17.20;95.40;;;;;;4983296;28;20038;-60
2023/05/15 11:49:43;;;;;;;69.55;9.07;;;17.30;95.50;;;;;;4975727;28;20023;-61
2023/05/15 11:52:08;;;;;;;80.50;10.65;;;17.30;95.20;;;;;;4966647;28;20035;-61
2023/05/15 11:54:34;;;;;;;84.55;9.35;;;17.40;95.10;;;;;;4954822;28;20811;-60
2023/05/15 11:57:00;;;;;;;58.15;8.00;;;17.50;95.00;;;;;;4996076;28;20041;-60
2023/05/15 11:59:26;;;;;;;51.78;8.15;;;17.50;94.90;;;;;;4987774;28;20083;-60
2023/05/15 12:01:51;;;;;;;54.60;8.25;;;17.60;94.80;;;;;;4985174;28;20034;-60
2023/05/15 12:04:17;;;;;;;49.88;7.65;;;17.70;94.60;;;;;;4995568;28;20038;-60
2023/05/15 12:06:43;;;;;;;67.30;9.27;;;17.50;94.40;;;;;;4977475;28;20038;-60
2023/05/15 12:09:16;;;;;;;51.03;8.43;;;17.80;93.90;;;;;;4979693;28;20046;-60
2023/05/15 12:11:48;;;;;;;81.10;9.75;;;17.90;93.80;;;;;;4981357;28;20035;-60
2023/05/15 12:14:13;;;;;;;59.80;8.40;;;17.90;93.60;;;;;;4992069;28;20043;-60
2023/05/15 12:16:39;;;;;;;60.05;9.07;;;18.10;93.50;;;;;;4971890;28;20042;-60
2023/05/15 12:19:05;;;;;;;75.28;10.15;;;18.10;93.30;;;;;;4976042;28;20031;-60
2023/05/15 12:21:30;;;;;;;61.28;9.55;;;18.20;93.10;;;;;;4975784;28;20086;-60
2023/05/15 12:23:56;;;;;;;88.43;12.18;;;18.30;92.80;;;;;;4985266;28;20038;-61
2023/05/15 12:26:22;;;;;;;50.35;8.25;;;18.40;92.60;;;;;;4984419;28;20091;-60
2023/05/15 12:28:47;;;;;;;76.30;11.20;;;18.40;92.40;;;;;;4965961;28;20038;-60
2023/05/15 12:31:13;;;;;;;51.85;8.75;;;18.50;92.10;;;;;;4987119;28;20030;-60
2023/05/15 12:33:38;;;;;;;58.20;8.25;;;18.60;91.80;;;;;;4980201;28;20069;-60
2023/05/15 12:36:04;;;;;;;59.75;9.98;;;18.70;91.60;;;;;;4986480;28;20062;-60
2023/05/15 12:38:32;;;;;;;79.90;11.25;;;18.80;91.30;;;;;;4983275;28;20030;-60
2023/05/15 12:40:58;;;;;;;66.30;9.20;;;18.80;91.30;;;;;;5003235;28;20053;-60